Terminal Aerodrome Forecast
Issued by NWS

Home | Current Version | Previous Version | Text Only | Print | Product List | Glossary On
Versions: 1 2 3 4 5 6 7 8 9 10 11 12 13 14 15 16
000
FTAK31 PANC 290539
TAFADU
TAF
PADU 290539Z 2906/3006 11006KT P6SM BKN022 OVC030
      TEMPO 2906/2908 SCT022 OVC040
     FM291800 11009G18KT P6SM BKN025 OVC040=

USA.gov is the U.S. government's official web portal to all federal, state and local government web resources and services.